Time;durP1;ratioP1;P1;durP2;ratioP2;P2;SDS_P1;SDS_P2;PMS_P1;PMS_P2;Temp;Humidity;BMP_temperature;BMP_pressure;BME280_temperature;BME280_humidity;BME280_pressure;Samples;Min_cycle;Max_cycle;Signal;HPM_P1;HPM_P2
2023/11/21 00:01:36;;;;;;;24.70;12.82;;;;;;;;;;4995697;28;20057;-61
2023/11/21 00:04:23;;;;;;;26.00;13.98;;;;;;;;;;4999124;28;20077;-61
2023/11/21 00:07:17;;;;;;;24.15;12.00;;;;;;;;;;4997225;28;20065;-60
2023/11/21 00:10:06;;;;;;;28.70;13.10;;;;;;;;;;4997409;28;20057;-61
2023/11/21 00:12:59;;;;;;;26.58;12.05;;;;;;;;;;4996856;28;20050;-60
2023/11/21 00:15:46;;;;;;;24.75;13.25;;;;;;;;;;4998620;28;20054;-60
2023/11/21 00:18:21;;;;;;;23.73;12.70;;;;;;;;;;4994408;28;20064;-60
2023/11/21 00:20:48;;;;;;;27.45;13.27;;;;;;;;;;4996950;28;20136;-60
2023/11/21 00:23:15;;;;;;;22.90;12.77;;;;;;;;;;4999570;28;20116;-61
2023/11/21 00:25:49;;;;;;;27.25;13.27;;;;;;;;;;4996847;28;20108;-60
2023/11/21 00:28:16;;;;;;;21.20;12.38;;;;;;;;;;4998487;28;20488;-60
2023/11/21 00:31:10;;;;;;;25.15;12.70;;;;;;;;;;4998541;28;20053;-60
2023/11/21 00:33:58;;;;;;;27.58;12.88;;;;;;;;;;4996742;28;20426;-60
2023/11/21 00:36:51;;;;;;;25.88;13.32;;;;;;;;;;4996445;28;20057;-60
2023/11/21 00:39:39;;;;;;;25.27;13.60;;;;;;;;;;4997348;28;20057;-60
2023/11/21 00:42:33;;;;;;;24.67;13.05;;;;;;;;;;4995509;28;20088;-61
2023/11/21 00:45:20;;;;;;;25.85;12.15;;;;;;;;;;4996765;28;20057;-61
2023/11/21 00:48:20;;;;;;;23.85;12.00;;;;;;;;;;4999637;28;20496;-60
2023/11/21 00:51:14;;;;;;;22.60;12.27;;;;;;;;;;4999201;28;20053;-62
2023/11/21 00:54:07;;;;;;;22.77;11.95;;;;;;;;;;4998048;28;20061;-60
2023/11/21 00:56:54;;;;;;;27.15;13.57;;;;;;;;;;4998883;28;20050;-60
2023/11/21 00:59:48;;;;;;;29.73;12.80;;;;;;;;;;5000513;28;20053;-60
2023/11/21 01:02:35;;;;;;;29.98;13.73;;;;;;;;;;4995626;28;20154;-60
2023/11/21 01:05:29;;;;;;;26.63;13.38;;;;;;;;;;4996778;28;20500;-60
2023/11/21 01:08:16;;;;;;;30.42;13.90;;;;;;;;;;4997129;28;20053;-60
2023/11/21 01:11:12;;;;;;;27.02;12.57;;;;;;;;;;4992891;28;20050;-60
2023/11/21 01:13:59;;;;;;;26.67;13.27;;;;;;;;;;4994533;28;20054;-60
2023/11/21 01:16:51;;;;;;;25.48;12.70;;;;;;;;;;4994044;28;20054;-65
2023/11/21 01:19:39;;;;;;;31.38;12.70;;;;;;;;;;4996109;28;20061;-64
2023/11/21 01:22:32;;;;;;;27.77;13.52;;;;;;;;;;4994961;28;20097;-65
2023/11/21 01:25:26;;;;;;;30.15;14.07;;;;;;;;;;4998142;28;20112;-64
2023/11/21 01:28:19;;;;;;;28.15;13.25;;;;;;;;;;5003316;28;20060;-64
2023/11/21 01:31:13;;;;;;;28.08;12.63;;;;;;;;;;5000159;28;20060;-65
2023/11/21 01:34:01;;;;;;;28.95;12.20;;;;;;;;;;5001507;28;20444;-64
2023/11/21 01:36:54;;;;;;;30.27;13.85;;;;;;;;;;4995965;28;20786;-65
2023/11/21 01:39:41;;;;;;;24.88;13.82;;;;;;;;;;4999750;28;20068;-65
2023/11/21 01:42:35;;;;;;;29.38;12.45;;;;;;;;;;5002211;28;20112;-50
2023/11/21 01:45:31;;;;;;;28.27;13.60;;;;;;;;;;4999919;28;20050;-53
2023/11/21 01:48:16;;;;;;;27.38;12.00;;;;;;;;;;5000550;28;20046;-53
2023/11/21 01:51:17;;;;;;;29.13;13.02;;;;;;;;;;4983410;28;20519;-61
2023/11/21 01:54:04;;;;;;;20.48;11.40;;;;;;;;;;4984581;28;20062;-62
2023/11/21 01:57:02;;;;;;;27.70;12.90;;;;;;;;;;4978756;28;20046;-61
2023/11/21 01:59:50;;;;;;;26.90;13.02;;;;;;;;;;4983445;28;20093;-61
2023/11/21 02:02:43;;;;;;;25.48;13.15;;;;;;;;;;4982851;28;20058;-61
2023/11/21 02:05:37;;;;;;;26.55;12.77;;;;;;;;;;4981956;28;20058;-61
2023/11/21 02:08:31;;;;;;;28.70;12.73;;;;;;;;;;4981278;28;20144;-61
2023/11/21 02:11:19;;;;;;;26.60;12.88;;;;;;;;;;4980827;28;20156;-61
2023/11/21 02:14:13;;;;;;;24.60;12.75;;;;;;;;;;4974001;28;20054;-61
2023/11/21 02:17:00;;;;;;;23.60;12.10;;;;;;;;;;4973416;28;20072;-61
2023/11/21 02:19:53;;;;;;;24.75;12.43;;;;;;;;;;4980030;28;20567;-60
2023/11/21 02:23:00;;;;;;;20.48;11.23;;;;;;;;;;4978170;28;20050;-61
2023/11/21 02:25:53;;;;;;;23.33;11.43;;;;;;;;;;4979660;28;20136;-60
2023/11/21 02:28:47;;;;;;;28.65;11.90;;;;;;;;;;4973591;28;20054;-61
2023/11/21 02:31:47;;;;;;;22.17;11.60;;;;;;;;;;4980134;28;20062;-60
2023/11/21 02:34:28;;;;;;;23.30;11.57;;;;;;;;;;4980072;28;20058;-61
2023/11/21 02:37:22;;;;;;;20.65;10.35;;;;;;;;;;4980377;28;20057;-60
2023/11/21 02:40:20;;;;;;;18.13;9.43;;;;;;;;;;4979875;28;20506;-60
2023/11/21 02:43:13;;;;;;;18.38;10.63;;;;;;;;;;4979425;28;20066;-60
2023/11/21 02:46:09;;;;;;;24.70;11.32;;;;;;;;;;4981114;28;20046;-60
2023/11/21 02:49:10;;;;;;;21.00;10.77;;;;;;;;;;4983843;28;20416;-60
2023/11/21 02:52:10;;;;;;;20.48;10.52;;;;;;;;;;5000273;28;20058;-60
2023/11/21 02:55:04;;;;;;;24.27;10.20;;;;;;;;;;4997579;28;20065;-60
2023/11/21 02:57:58;;;;;;;21.10;10.25;;;;;;;;;;4999418;28;20329;-60
2023/11/21 03:00:46;;;;;;;19.25;10.55;;;;;;;;;;4996206;28;20062;-60
2023/11/21 03:03:40;;;;;;;20.95;9.95;;;;;;;;;;4993642;28;20066;-61
2023/11/21 03:06:27;;;;;;;20.30;11.05;;;;;;;;;;5001180;28;20089;-61
2023/11/21 03:09:21;;;;;;;18.60;10.43;;;;;;;;;;5002067;28;20061;-61
2023/11/21 03:12:15;;;;;;;18.30;10.77;;;;;;;;;;5002604;28;20099;-61
2023/11/21 03:15:09;;;;;;;16.50;9.48;;;;;;;;;;5003019;28;20042;-60
2023/11/21 03:18:05;;;;;;;22.33;10.43;;;;;;;;;;5003095;28;20058;-61
2023/11/21 03:20:52;;;;;;;19.17;10.55;;;;;;;;;;5003817;28;20061;-60
2023/11/21 03:23:46;;;;;;;21.60;11.20;;;;;;;;;;4997464;28;20073;-60
2023/11/21 03:26:33;;;;;;;21.80;11.05;;;;;;;;;;4997428;28;20104;-61
2023/11/21 03:29:27;;;;;;;21.98;10.57;;;;;;;;;;5000671;28;20054;-61
2023/11/21 03:32:14;;;;;;;19.25;10.05;;;;;;;;;;4994908;28;20520;-60
2023/11/21 03:35:08;;;;;;;20.52;11.20;;;;;;;;;;4997644;28;20046;-61
2023/11/21 03:37:56;;;;;;;19.30;11.40;;;;;;;;;;4998065;28;20057;-61
2023/11/21 03:40:50;;;;;;;21.13;11.13;;;;;;;;;;4998733;28;20062;-60
2023/11/21 03:43:37;;;;;;;20.65;11.50;;;;;;;;;;4996734;28;20623;-61
2023/11/21 03:46:31;;;;;;;21.77;11.60;;;;;;;;;;4999440;28;20076;-60
2023/11/21 03:49:25;;;;;;;20.67;11.85;;;;;;;;;;4995940;28;20050;-61
2023/11/21 03:52:25;;;;;;;23.83;13.43;;;;;;;;;;4998859;28;20069;-50
2023/11/21 03:55:12;;;;;;;26.92;13.80;;;;;;;;;;5000994;28;20052;-53
2023/11/21 03:58:06;;;;;;;22.80;13.70;;;;;;;;;;4997739;28;20398;-50
2023/11/21 04:00:54;;;;;;;22.35;11.93;;;;;;;;;;4997113;28;20436;-55
2023/11/21 04:03:47;;;;;;;23.38;12.52;;;;;;;;;;5000302;28;20060;-53
2023/11/21 04:06:35;;;;;;;24.33;13.88;;;;;;;;;;4999672;28;20168;-54
2023/11/21 04:09:28;;;;;;;23.17;13.23;;;;;;;;;;5000998;28;21039;-53
2023/11/21 04:12:15;;;;;;;28.83;13.75;;;;;;;;;;5000586;28;20061;-53
2023/11/21 04:15:10;;;;;;;28.35;14.57;;;;;;;;;;4998037;28;20052;-55
2023/11/21 04:17:57;;;;;;;27.38;15.05;;;;;;;;;;5000018;28;20050;-54
2023/11/21 04:20:50;;;;;;;26.27;14.38;;;;;;;;;;4999309;28;20061;-51
2023/11/21 04:23:39;;;;;;;26.52;14.00;;;;;;;;;;4996155;28;20058;-52
2023/11/21 04:26:31;;;;;;;30.52;14.50;;;;;;;;;;4999191;28;20062;-54
2023/11/21 04:29:18;;;;;;;29.67;14.18;;;;;;;;;;4994429;28;20120;-53
2023/11/21 04:32:12;;;;;;;30.77;15.98;;;;;;;;;;4994223;28;20089;-52
2023/11/21 04:35:08;;;;;;;25.00;13.48;;;;;;;;;;4993865;28;20050;-52
2023/11/21 04:37:54;;;;;;;26.98;13.75;;;;;;;;;;4995494;28;20053;-53
2023/11/21 04:40:47;;;;;;;25.63;13.55;;;;;;;;;;4992442;28;20054;-53
2023/11/21 04:43:34;;;;;;;27.83;13.80;;;;;;;;;;4992847;28;20783;-49
2023/11/21 04:46:28;;;;;;;24.95;13.45;;;;;;;;;;4990852;28;20104;-52
2023/11/21 04:49:23;;;;;;;27.15;14.18;;;;;;;;;;4997416;28;20057;-49
2023/11/21 04:52:24;;;;;;;26.23;14.40;;;;;;;;;;4996033;28;20057;-52
2023/11/21 04:55:17;;;;;;;28.48;13.32;;;;;;;;;;4997901;28;20121;-52
2023/11/21 04:58:12;;;;;;;28.42;13.68;;;;;;;;;;4996459;28;20598;-51
2023/11/21 05:01:05;;;;;;;27.20;12.80;;;;;;;;;;4992711;28;20571;-53
2023/11/21 05:03:52;;;;;;;25.90;13.32;;;;;;;;;;4995786;28;20112;-52
2023/11/21 05:06:47;;;;;;;27.08;13.88;;;;;;;;;;4998143;28;20061;-51
2023/11/21 05:09:35;;;;;;;32.33;14.45;;;;;;;;;;5000309;28;20054;-50
2023/11/21 05:12:27;;;;;;;29.80;14.13;;;;;;;;;;5004117;28;20062;-50
2023/11/21 05:15:15;;;;;;;26.20;12.55;;;;;;;;;;5002649;28;20054;-51
2023/11/21 05:18:09;;;;;;;27.77;13.55;;;;;;;;;;4999873;28;20058;-50
2023/11/21 05:20:57;;;;;;;24.45;12.80;;;;;;;;;;4999285;28;20065;-53
2023/11/21 05:23:50;;;;;;;25.17;13.00;;;;;;;;;;4992962;28;20967;-50
2023/11/21 05:26:38;;;;;;;32.53;13.77;;;;;;;;;;4994082;28;20931;-53
2023/11/21 05:29:31;;;;;;;28.85;12.52;;;;;;;;;;4995192;28;20054;-51
2023/11/21 05:32:18;;;;;;;25.55;12.02;;;;;;;;;;4996360;28;20062;-50
2023/11/21 05:35:15;;;;;;;23.33;11.68;;;;;;;;;;4992948;28;20928;-54
2023/11/21 05:37:59;;;;;;;24.40;11.48;;;;;;;;;;4992516;28;20050;-54
2023/11/21 05:40:54;;;;;;;23.70;11.73;;;;;;;;;;4995745;28;20112;-51
2023/11/21 05:43:40;;;;;;;25.92;12.40;;;;;;;;;;4991312;28;20244;-51
2023/11/21 05:46:34;;;;;;;19.75;10.45;;;;;;;;;;4992668;28;20823;-51
2023/11/21 05:49:21;;;;;;;23.55;11.13;;;;;;;;;;4992097;28;20054;-51
2023/11/21 05:52:15;;;;;;;22.20;11.38;;;;;;;;;;4999525;28;20061;-52
2023/11/21 05:55:04;;;;;;;22.42;11.70;;;;;;;;;;4995460;28;20064;-49
2023/11/21 05:57:56;;;;;;;25.00;12.15;;;;;;;;;;4998667;28;20144;-49
2023/11/21 06:00:43;;;;;;;23.05;10.65;;;;;;;;;;4999048;28;20172;-48
2023/11/21 06:03:38;;;;;;;23.88;11.85;;;;;;;;;;5000825;28;20725;-50
2023/11/21 06:06:26;;;;;;;19.92;10.77;;;;;;;;;;4993281;28;20057;-52
2023/11/21 06:09:19;;;;;;;23.55;10.45;;;;;;;;;;4996778;28;20069;-50
2023/11/21 06:12:06;;;;;;;21.67;10.90;;;;;;;;;;5000341;28;20124;-50
2023/11/21 06:15:01;;;;;;;20.23;9.80;;;;;;;;;;4998737;28;20140;-54
2023/11/21 06:17:54;;;;;;;24.88;11.18;;;;;;;;;;5001040;28;20108;-50
2023/11/21 06:20:44;;;;;;;20.25;10.63;;;;;;;;;;4999847;28;20057;-50
2023/11/21 06:23:31;;;;;;;19.67;10.18;;;;;;;;;;5002204;28;20050;-50
2023/11/21 06:26:25;;;;;;;20.45;10.40;;;;;;;;;;5002847;28;20540;-54
2023/11/21 06:29:13;;;;;;;18.50;10.13;;;;;;;;;;4999173;28;20512;-49
2023/11/21 06:32:06;;;;;;;15.75;9.07;;;;;;;;;;4996777;28;20072;-53
2023/11/21 06:34:54;;;;;;;17.40;10.27;;;;;;;;;;5002452;28;20441;-50
2023/11/21 06:37:48;;;;;;;16.98;9.88;;;;;;;;;;4996963;28;20054;-52
2023/11/21 06:40:35;;;;;;;18.67;10.20;;;;;;;;;;5001010;28;20120;-52
2023/11/21 06:43:31;;;;;;;22.00;9.35;;;;;;;;;;5000948;28;20056;-54
2023/11/21 06:46:17;;;;;;;17.92;9.70;;;;;;;;;;5000983;28;20047;-51
2023/11/21 06:49:23;;;;;;;19.10;9.30;;;;;;;;;;5000216;28;20492;-51
2023/11/21 06:52:18;;;;;;;16.10;8.90;;;;;;;;;;5001216;28;20205;-52
2023/11/21 16:53:17;;;;;;;9.13;5.30;;;;;;;;;;4934923;28;20082;-61
2023/11/21 16:56:00;;;;;;;7.00;4.63;;;;;;;;;;4949337;28;20055;-61
2023/11/21 16:58:45;;;;;;;8.13;5.32;;;;;;;;;;4955693;28;20059;-61
2023/11/21 17:01:39;;;;;;;6.50;4.80;;;;;;;;;;4957640;28;20046;-61
2023/11/21 17:04:27;;;;;;;8.15;5.10;;;;;;;;;;4954544;28;20470;-61
2023/11/21 17:07:21;;;;;;;8.63;5.45;;;;;;;;;;4956740;28;20047;-60
2023/11/21 17:10:09;;;;;;;9.57;6.03;;;;;;;;;;4957303;28;20054;-56
2023/11/21 17:13:02;;;;;;;9.30;4.93;;;;;;;;;;4947385;28;20081;-59
2023/11/21 17:15:49;;;;;;;7.10;4.95;;;;;;;;;;4954677;28;20055;-57
2023/11/21 17:18:44;;;;;;;7.53;4.95;;;;;;;;;;4954292;28;20055;-59
2023/11/21 17:21:31;;;;;;;7.82;4.88;;;;;;;;;;4952937;28;20181;-59
2023/11/21 17:24:25;;;;;;;6.97;5.15;;;;;;;;;;4951018;28;20107;-67
2023/11/21 17:27:18;;;;;;;7.30;5.40;;;;;;;;;;4950944;28;20058;-67
2023/11/21 17:30:06;;;;;;;8.43;5.00;;;;;;;;;;4952393;28;20054;-67
2023/11/21 17:32:59;;;;;;;9.07;5.75;;;;;;;;;;4955007;28;20066;-65
2023/11/21 17:35:46;;;;;;;7.57;5.60;;;;;;;;;;4956991;28;20059;-67
2023/11/21 17:38:40;;;;;;;7.70;5.20;;;;;;;;;;4947382;28;20114;-67
2023/11/21 17:41:28;;;;;;;8.30;5.18;;;;;;;;;;4955794;28;20581;-61
2023/11/21 17:44:21;;;;;;;7.50;5.35;;;;;;;;;;4957762;28;20581;-61
2023/11/21 17:47:10;;;;;;;8.05;5.00;;;;;;;;;;4954941;28;20098;-61
2023/11/21 17:50:03;;;;;;;6.95;5.50;;;;;;;;;;4954104;28;20058;-61
2023/11/21 17:52:50;;;;;;;7.90;4.97;;;;;;;;;;4956365;28;20055;-60
2023/11/21 17:55:51;;;;;;;11.43;5.97;;;;;;;;;;4933234;28;20130;-60
2023/11/21 17:58:41;;;;;;;10.35;5.85;;;;;;;;;;4932698;28;20617;-61
2023/11/21 18:01:37;;;;;;;8.35;5.95;;;;;;;;;;4937167;28;20065;-60
2023/11/21 18:04:24;;;;;;;8.60;6.25;;;;;;;;;;4936716;28;20055;-60
2023/11/21 18:07:18;;;;;;;11.50;7.53;;;;;;;;;;4940776;28;20069;-60
2023/11/21 18:10:07;;;;;;;9.98;6.32;;;;;;;;;;4941804;28;20054;-57
2023/11/21 18:12:59;;;;;;;11.65;6.60;;;;;;;;;;4939521;28;20588;-57
2023/11/21 18:15:54;;;;;;;12.32;7.72;;;;;;;;;;4938933;28;20531;-58
2023/11/21 18:18:47;;;;;;;11.73;8.05;;;;;;;;;;4939052;28;20082;-60
2023/11/21 18:21:42;;;;;;;11.10;7.53;;;;;;;;;;4937524;28;20150;-60
2023/11/21 18:24:29;;;;;;;10.95;7.60;;;;;;;;;;4945777;28;20051;-60
2023/11/21 18:27:27;;;;;;;12.60;8.02;;;;;;;;;;4933915;28;20063;-60
2023/11/21 18:30:13;;;;;;;11.45;8.40;;;;;;;;;;4941567;28;20145;-60
2023/11/21 18:33:06;;;;;;;13.75;8.50;;;;;;;;;;4942545;28;20466;-60
2023/11/21 18:35:53;;;;;;;10.50;7.15;;;;;;;;;;4934603;28;20078;-61
2023/11/21 18:38:46;;;;;;;12.02;7.93;;;;;;;;;;4942656;28;20055;-50
2023/11/21 18:41:42;;;;;;;12.93;7.93;;;;;;;;;;4940747;28;20059;-51
2023/11/21 18:44:29;;;;;;;11.05;7.53;;;;;;;;;;4943172;28;20063;-50
2023/11/21 18:47:26;;;;;;;11.90;7.75;;;;;;;;;;4940677;28;20098;-56
2023/11/21 18:50:17;;;;;;;11.32;7.95;;;;;;;;;;4938836;28;20462;-60
2023/11/21 18:53:07;;;;;;;13.65;8.77;;;;;;;;;;4940491;28;20126;-57
2023/11/21 18:56:01;;;;;;;11.75;8.45;;;;;;;;;;4977590;28;20062;-59
2023/11/21 18:58:55;;;;;;;14.02;9.27;;;;;;;;;;4979954;28;20062;-59
2023/11/21 19:01:49;;;;;;;12.88;8.32;;;;;;;;;;4978841;28;20061;-56
2023/11/21 19:04:37;;;;;;;13.90;9.02;;;;;;;;;;4978468;28;20050;-56
2023/11/21 19:07:36;;;;;;;12.73;8.50;;;;;;;;;;4977806;28;20058;-53
2023/11/21 19:10:22;;;;;;;15.63;8.13;;;;;;;;;;4978817;28;20144;-56
2023/11/21 19:13:17;;;;;;;13.60;8.05;;;;;;;;;;4977799;28;20050;-56
2023/11/21 19:16:10;;;;;;;12.93;8.20;;;;;;;;;;4978443;28;20054;-61
2023/11/21 19:18:57;;;;;;;14.68;8.35;;;;;;;;;;4977822;28;20542;-58
2023/11/21 19:21:50;;;;;;;16.17;8.50;;;;;;;;;;4979017;28;20520;-57
2023/11/21 19:24:38;;;;;;;13.90;9.18;;;;;;;;;;4979312;28;20054;-57
2023/11/21 19:27:31;;;;;;;14.63;9.05;;;;;;;;;;4975471;28;20061;-58
2023/11/21 19:30:20;;;;;;;12.30;8.10;;;;;;;;;;4975973;28;20054;-58
2023/11/21 19:33:12;;;;;;;14.57;9.20;;;;;;;;;;4977247;28;20058;-58
2023/11/21 19:36:00;;;;;;;16.52;10.65;;;;;;;;;;4977740;28;20088;-55
2023/11/21 19:38:53;;;;;;;15.77;9.70;;;;;;;;;;4979312;28;20054;-52
2023/11/21 19:41:41;;;;;;;14.18;9.65;;;;;;;;;;4980499;28;20058;-56
2023/11/21 19:44:36;;;;;;;15.18;9.40;;;;;;;;;;4980254;28;20050;-49
2023/11/21 19:47:21;;;;;;;13.50;8.77;;;;;;;;;;4978116;28;20055;-50
2023/11/21 19:50:16;;;;;;;14.35;8.85;;;;;;;;;;4980082;28;20042;-46
2023/11/21 19:53:03;;;;;;;13.50;8.70;;;;;;;;;;4977643;28;20061;-51
2023/11/21 19:56:03;;;;;;;12.75;8.90;;;;;;;;;;4975599;28;20054;-50
2023/11/21 19:58:51;;;;;;;12.98;8.43;;;;;;;;;;4975318;28;20592;-52
2023/11/21 20:01:47;;;;;;;14.23;8.43;;;;;;;;;;4973441;28;20053;-51
2023/11/21 20:04:34;;;;;;;15.20;9.20;;;;;;;;;;4976145;28;20058;-57
2023/11/21 20:07:31;;;;;;;15.73;9.98;;;;;;;;;;4974088;28;20146;-58
2023/11/21 20:10:22;;;;;;;13.48;8.43;;;;;;;;;;4968806;28;20050;-59
2023/11/21 20:13:10;;;;;;;14.27;9.63;;;;;;;;;;4967802;28;20096;-60
2023/11/21 20:16:05;;;;;;;14.07;9.10;;;;;;;;;;4973571;28;20064;-59
2023/11/21 20:18:51;;;;;;;14.88;8.98;;;;;;;;;;4972173;28;20058;-60
2023/11/21 20:21:46;;;;;;;15.93;9.82;;;;;;;;;;4971456;28;20050;-58
2023/11/21 20:24:34;;;;;;;15.73;9.20;;;;;;;;;;4974650;28;20065;-59
2023/11/21 20:27:26;;;;;;;14.70;9.10;;;;;;;;;;4977288;28;20066;-59
2023/11/21 20:30:13;;;;;;;14.85;9.02;;;;;;;;;;4978710;28;20074;-59
2023/11/21 20:33:10;;;;;;;12.40;9.00;;;;;;;;;;4978447;28;21999;-58
2023/11/21 20:36:05;;;;;;;14.20;9.20;;;;;;;;;;4974257;28;20054;-62
2023/11/21 20:38:51;;;;;;;14.63;9.68;;;;;;;;;;4976792;28;20053;-59
2023/11/21 20:41:51;;;;;;;16.17;9.50;;;;;;;;;;4974903;28;20504;-57
2023/11/21 20:44:38;;;;;;;14.30;9.23;;;;;;;;;;4974209;28;20448;-59
2023/11/21 20:47:32;;;;;;;14.10;9.63;;;;;;;;;;4973000;28;20069;-59
2023/11/21 20:50:22;;;;;;;16.48;10.15;;;;;;;;;;4978600;28;20050;-59
2023/11/21 20:53:13;;;;;;;17.65;10.05;;;;;;;;;;4974842;28;20130;-59
2023/11/21 20:56:07;;;;;;;20.38;10.18;;;;;;;;;;4972863;28;20058;-60
2023/11/21 20:59:06;;;;;;;14.00;8.77;;;;;;;;;;4972291;28;20472;-59
2023/11/21 21:01:50;;;;;;;15.48;9.23;;;;;;;;;;4973631;28;20062;-49
2023/11/21 21:04:44;;;;;;;16.25;9.40;;;;;;;;;;4973392;28;20050;-47
2023/11/21 21:07:32;;;;;;;14.27;9.10;;;;;;;;;;4973977;28;20050;-48
2023/11/21 21:10:25;;;;;;;14.70;8.90;;;;;;;;;;4975722;28;20449;-46
2023/11/21 21:13:19;;;;;;;15.15;9.10;;;;;;;;;;4969230;28;20051;-57
2023/11/21 21:16:07;;;;;;;15.18;9.35;;;;;;;;;;4976002;28;20543;-57
2023/11/21 21:19:02;;;;;;;14.43;8.68;;;;;;;;;;4973047;28;22082;-58
2023/11/21 21:21:48;;;;;;;14.80;8.77;;;;;;;;;;4974016;28;20596;-59
2023/11/21 21:24:42;;;;;;;13.73;8.85;;;;;;;;;;4974521;28;20159;-58
2023/11/21 21:27:29;;;;;;;13.77;8.32;;;;;;;;;;4975919;28;20054;-58
2023/11/21 21:30:27;;;;;;;13.63;8.65;;;;;;;;;;4978141;28;20129;-59
2023/11/21 21:33:11;;;;;;;15.52;9.07;;;;;;;;;;4962125;28;20054;-60
2023/11/21 21:36:05;;;;;;;12.27;8.40;;;;;;;;;;4974559;28;20058;-60
2023/11/21 21:38:52;;;;;;;12.05;7.63;;;;;;;;;;4973792;28;20188;-47
2023/11/21 21:41:46;;;;;;;17.52;8.55;;;;;;;;;;4977182;28;20284;-57
2023/11/21 21:44:34;;;;;;;14.10;8.63;;;;;;;;;;4980343;28;20172;-57
2023/11/21 21:47:26;;;;;;;15.40;8.18;;;;;;;;;;4974856;28;20066;-58
2023/11/21 21:50:20;;;;;;;11.55;7.60;;;;;;;;;;4979130;28;20058;-58
2023/11/21 21:53:15;;;;;;;11.15;7.28;;;;;;;;;;4976595;28;20060;-57
2023/11/21 21:56:08;;;;;;;12.45;8.27;;;;;;;;;;4976035;28;20077;-58
2023/11/21 21:59:02;;;;;;;13.93;8.13;;;;;;;;;;4976377;28;20066;-49
2023/11/21 22:01:49;;;;;;;12.95;8.10;;;;;;;;;;4976312;28;20058;-50
2023/11/21 22:04:43;;;;;;;12.98;8.15;;;;;;;;;;4975134;28;20050;-47
2023/11/21 22:07:31;;;;;;;14.82;8.65;;;;;;;;;;4963094;28;20061;-53
2023/11/21 22:10:24;;;;;;;13.40;8.60;;;;;;;;;;4979355;28;20069;-58
2023/11/21 22:13:11;;;;;;;14.68;7.70;;;;;;;;;;4977866;28;20493;-59
2023/11/21 22:16:07;;;;;;;14.55;8.65;;;;;;;;;;4974401;28;20112;-58
2023/11/21 22:18:54;;;;;;;16.20;7.57;;;;;;;;;;4977698;28;20104;-59
2023/11/21 22:21:46;;;;;;;13.68;8.20;;;;;;;;;;4976978;28;20353;-59
2023/11/21 22:24:34;;;;;;;12.50;7.50;;;;;;;;;;4978331;28;20697;-56
2023/11/21 22:27:28;;;;;;;11.38;7.32;;;;;;;;;;4979702;28;20054;-55
2023/11/21 22:30:15;;;;;;;12.80;7.03;;;;;;;;;;4978146;28;20058;-55
2023/11/21 22:33:09;;;;;;;12.93;7.93;;;;;;;;;;4974381;28;20599;-56
2023/11/21 22:35:56;;;;;;;12.43;7.75;;;;;;;;;;4979459;28;20058;-56
2023/11/21 22:38:50;;;;;;;11.98;7.05;;;;;;;;;;4980140;28;20172;-58
2023/11/21 22:41:37;;;;;;;11.65;7.55;;;;;;;;;;4973980;28;20072;-58
2023/11/21 22:44:31;;;;;;;10.75;7.10;;;;;;;;;;4976120;28;20969;-57
2023/11/21 22:47:31;;;;;;;15.35;8.13;;;;;;;;;;4970437;28;20129;-55
2023/11/21 22:50:18;;;;;;;11.50;6.82;;;;;;;;;;4979587;28;20054;-58
2023/11/21 22:53:12;;;;;;;12.10;7.13;;;;;;;;;;4979537;28;20112;-59
2023/11/21 22:56:07;;;;;;;11.60;7.57;;;;;;;;;;4978863;28;20441;-59
2023/11/21 22:59:00;;;;;;;11.05;7.00;;;;;;;;;;4980030;28;20052;-59
2023/11/21 23:01:50;;;;;;;11.85;6.72;;;;;;;;;;4980748;28;20078;-59
2023/11/21 23:04:44;;;;;;;12.43;7.45;;;;;;;;;;4979121;28;20080;-53
2023/11/21 23:07:32;;;;;;;13.63;7.65;;;;;;;;;;4981166;28;20069;-58
2023/11/21 23:10:27;;;;;;;10.65;6.97;;;;;;;;;;4981902;28;20050;-56
2023/11/21 23:13:13;;;;;;;12.20;7.30;;;;;;;;;;4977364;28;20125;-57
2023/11/21 23:16:07;;;;;;;11.32;7.20;;;;;;;;;;4982339;28;20086;-56
2023/11/21 23:18:54;;;;;;;9.20;6.40;;;;;;;;;;4981356;28;20080;-57
2023/11/21 23:21:48;;;;;;;10.48;6.03;;;;;;;;;;4982882;28;21225;-58
2023/11/21 23:24:36;;;;;;;9.73;6.03;;;;;;;;;;4983305;28;20062;-58
2023/11/21 23:27:29;;;;;;;10.40;6.20;;;;;;;;;;4981642;28;20085;-58
2023/11/21 23:30:17;;;;;;;17.33;6.20;;;;;;;;;;4983844;28;20046;-58
2023/11/21 23:33:10;;;;;;;9.45;6.47;;;;;;;;;;4982808;28;20514;-57
2023/11/21 23:35:58;;;;;;;10.45;6.38;;;;;;;;;;4981553;28;20265;-57
2023/11/21 23:38:51;;;;;;;11.13;6.90;;;;;;;;;;4981441;28;20130;-57
2023/11/21 23:41:39;;;;;;;9.55;5.78;;;;;;;;;;4980887;28;20046;-59
2023/11/21 23:44:32;;;;;;;10.25;5.70;;;;;;;;;;4979758;28;20062;-59
2023/11/21 23:47:19;;;;;;;9.60;5.63;;;;;;;;;;4979579;28;20513;-58
2023/11/21 23:50:23;;;;;;;8.30;4.90;;;;;;;;;;4980519;28;20081;-59
2023/11/21 23:53:07;;;;;;;8.05;5.40;;;;;;;;;;4979774;28;20054;-59
2023/11/21 23:56:03;;;;;;;8.50;5.47;;;;;;;;;;4980740;28;20509;-59
2023/11/21 23:58:56;;;;;;;7.90;5.15;;;;;;;;;;4978596;28;20054;-59
